KMCI

Kansas City International Airport

Kansas City, Missouri, USA
METAR KMCI 191453Z 15011KT 10SM SCT150 OVC200 25/20 A2991 RMK AO2 SLP118 T02500200 57001
Observed Flight Rules
Aug-19 @ 14:53 UTC (46 minutes ago) Visual Flight Rules
Wind Visibility Clouds
150° at 11 knots 10 miles
  • Scattered at 15,000' AGL
  • Overcast at 20,000' AGL
Temperatures Readings
Current 25°C / 77°F
Dewpoint 20°C / 68°F
Humidity 74%
Altimeter 29.91" Hg
Pressure 1011.8 hPa
Elevation 320
METAR KMCI 191453Z 15011KT 10SM SCT150 OVC200 25/20 A2991 RMK AO2 SLP118 T02500200 57001
Observed Flight Rules
Aug-19 @ 14:53 UTC
(46 minutes ago)
VFR
Wind Visibility
150° at 11 knots 10 miles
Clouds
  • Scattered at 15,000' AGL
  • Overcast at 20,000' AGL
Temperature Dewpoint
25°C / 77°F 20°C / 68°F
Humidity Altimeter Pressure
74% 29.91" Hg 1011.8 hPa